sensor_id;sensor_type;location;lat;lon;timestamp;pressure;altitude;pressure_sealevel;temperature;humidity
62712;BME280;48772;55.586;37.730;2023-03-12T00:01:38;97056.41;;;1.10;100.00
62712;BME280;48772;55.586;37.730;2023-03-12T00:04:04;97085.31;;;1.40;100.00
62712;BME280;48772;55.586;37.730;2023-03-12T00:06:30;97082.56;;;1.42;100.00
62712;BME280;48772;55.586;37.730;2023-03-12T00:08:58;97095.19;;;1.57;100.00
62712;BME280;48772;55.586;37.730;2023-03-12T00:11:27;97077.63;;;1.48;100.00
62712;BME280;48772;55.586;37.730;2023-03-12T00:13:55;97040.50;;;1.32;100.00
62712;BME280;48772;55.586;37.730;2023-03-12T00:16:22;97095.56;;;1.73;100.00
62712;BME280;48772;55.586;37.730;2023-03-12T00:18:51;97059.44;;;1.66;100.00
62712;BME280;48772;55.586;37.730;2023-03-12T00:21:17;97061.44;;;1.73;100.00
62712;BME280;48772;55.586;37.730;2023-03-12T00:23:45;97069.69;;;1.69;100.00
62712;BME280;48772;55.586;37.730;2023-03-12T00:26:12;97066.88;;;1.91;100.00
62712;BME280;48772;55.586;37.730;2023-03-12T00:28:39;97072.00;;;1.92;100.00
62712;BME280;48772;55.586;37.730;2023-03-12T00:31:26;97057.22;;;1.91;100.00
62712;BME280;48772;55.586;37.730;2023-03-12T00:33:53;97071.34;;;2.00;100.00
62712;BME280;48772;55.586;37.730;2023-03-12T00:36:21;97054.91;;;2.07;100.00
62712;BME280;48772;55.586;37.730;2023-03-12T00:38:50;97036.50;;;2.07;100.00
62712;BME280;48772;55.586;37.730;2023-03-12T00:41:16;97031.66;;;2.03;100.00
62712;BME280;48772;55.586;37.730;2023-03-12T00:43:49;97029.03;;;2.12;100.00
62712;BME280;48772;55.586;37.730;2023-03-12T00:46:15;97009.72;;;2.23;100.00
62712;BME280;48772;55.586;37.730;2023-03-12T00:48:42;97022.72;;;2.81;100.00
62712;BME280;48772;55.586;37.730;2023-03-12T00:51:08;97005.13;;;2.91;100.00
62712;BME280;48772;55.586;37.730;2023-03-12T00:53:34;96979.09;;;2.88;100.00
62712;BME280;48772;55.586;37.730;2023-03-12T00:56:01;96968.50;;;2.42;100.00
62712;BME280;48772;55.586;37.730;2023-03-12T00:58:27;97001.16;;;2.59;100.00
62712;BME280;48772;55.586;37.730;2023-03-12T01:00:52;96998.41;;;2.60;100.00
62712;BME280;48772;55.586;37.730;2023-03-12T01:03:18;96974.69;;;2.51;100.00
62712;BME280;48772;55.586;37.730;2023-03-12T01:05:44;96969.75;;;2.48;100.00
62712;BME280;48772;55.586;37.730;2023-03-12T01:08:10;96908.84;;;2.43;100.00
62712;BME280;48772;55.586;37.730;2023-03-12T01:10:40;96968.06;;;2.66;100.00
62712;BME280;48772;55.586;37.730;2023-03-12T01:13:06;96978.97;;;2.80;100.00
62712;BME280;48772;55.586;37.730;2023-03-12T01:15:32;96965.56;;;2.83;100.00
62712;BME280;48772;55.586;37.730;2023-03-12T01:17:58;96964.28;;;2.87;100.00
62712;BME280;48772;55.586;37.730;2023-03-12T01:20:24;96934.81;;;2.74;100.00
62712;BME280;48772;55.586;37.730;2023-03-12T01:22:50;96932.59;;;2.79;100.00
62712;BME280;48772;55.586;37.730;2023-03-12T01:25:16;96958.34;;;2.95;100.00
62712;BME280;48772;55.586;37.730;2023-03-12T01:27:42;96953.88;;;2.95;100.00
62712;BME280;48772;55.586;37.730;2023-03-12T01:30:08;96968.03;;;2.94;100.00
62712;BME280;48772;55.586;37.730;2023-03-12T01:32:34;96896.63;;;2.70;100.00
62712;BME280;48772;55.586;37.730;2023-03-12T01:35:00;96938.81;;;2.97;100.00
62712;BME280;48772;55.586;37.730;2023-03-12T01:37:27;96939.75;;;2.96;100.00
62712;BME280;48772;55.586;37.730;2023-03-12T01:39:53;96941.66;;;3.13;100.00
62712;BME280;48772;55.586;37.730;2023-03-12T01:42:19;96931.41;;;3.10;100.00
62712;BME280;48772;55.586;37.730;2023-03-12T01:44:59;96896.28;;;2.92;100.00
62712;BME280;48772;55.586;37.730;2023-03-12T01:47:30;96928.31;;;3.24;100.00
62712;BME280;48772;55.586;37.730;2023-03-12T01:50:01;96927.09;;;3.19;100.00
62712;BME280;48772;55.586;37.730;2023-03-12T01:52:35;96895.91;;;3.14;100.00
62712;BME280;48772;55.586;37.730;2023-03-12T01:55:06;96874.66;;;2.98;100.00
62712;BME280;48772;55.586;37.730;2023-03-12T01:57:47;96905.41;;;3.34;100.00
62712;BME280;48772;55.586;37.730;2023-03-12T02:00:17;96912.22;;;3.27;100.00
62712;BME280;48772;55.586;37.730;2023-03-12T02:02:46;96902.50;;;3.37;100.00
62712;BME280;48772;55.586;37.730;2023-03-12T02:07:55;96907.44;;;3.40;100.00
62712;BME280;48772;55.586;37.730;2023-03-12T02:10:22;96871.19;;;3.34;100.00
62712;BME280;48772;55.586;37.730;2023-03-12T02:12:48;96884.44;;;3.42;100.00
62712;BME280;48772;55.586;37.730;2023-03-12T02:15:14;96891.63;;;3.50;100.00
62712;BME280;48772;55.586;37.730;2023-03-12T02:17:40;96876.63;;;3.50;100.00
62712;BME280;48772;55.586;37.730;2023-03-12T02:20:13;96871.66;;;3.47;100.00
62712;BME280;48772;55.586;37.730;2023-03-12T02:22:45;96873.31;;;3.48;100.00
62712;BME280;48772;55.586;37.730;2023-03-12T02:27:51;96849.28;;;3.34;100.00
62712;BME280;48772;55.586;37.730;2023-03-12T02:30:18;96841.16;;;3.45;100.00
62712;BME280;48772;55.586;37.730;2023-03-12T02:32:45;96827.69;;;3.30;100.00
62712;BME280;48772;55.586;37.730;2023-03-12T02:35:15;96848.63;;;3.49;100.00
62712;BME280;48772;55.586;37.730;2023-03-12T02:37:52;96852.91;;;3.50;100.00
62712;BME280;48772;55.586;37.730;2023-03-12T02:42:47;96796.81;;;3.23;100.00
62712;BME280;48772;55.586;37.730;2023-03-12T02:45:13;96775.53;;;3.16;100.00
62712;BME280;48772;55.586;37.730;2023-03-12T02:47:39;96830.56;;;3.54;100.00
62712;BME280;48772;55.586;37.730;2023-03-12T02:50:05;96815.53;;;3.47;100.00
62712;BME280;48772;55.586;37.730;2023-03-12T02:52:31;96772.56;;;3.46;100.00
62712;BME280;48772;55.586;37.730;2023-03-12T02:55:00;96787.22;;;3.49;100.00
62712;BME280;48772;55.586;37.730;2023-03-12T02:57:28;96786.63;;;3.55;100.00
62712;BME280;48772;55.586;37.730;2023-03-12T02:59:54;96781.81;;;3.50;100.00
62712;BME280;48772;55.586;37.730;2023-03-12T03:02:20;96772.13;;;3.51;100.00
62712;BME280;48772;55.586;37.730;2023-03-12T03:04:45;96783.94;;;3.65;100.00
62712;BME280;48772;55.586;37.730;2023-03-12T03:07:11;96794.84;;;3.70;100.00
62712;BME280;48772;55.586;37.730;2023-03-12T03:09:39;96763.28;;;3.60;100.00
62712;BME280;48772;55.586;37.730;2023-03-12T03:12:05;96778.59;;;3.74;100.00
62712;BME280;48772;55.586;37.730;2023-03-12T03:14:33;96787.19;;;3.76;100.00
62712;BME280;48772;55.586;37.730;2023-03-12T03:16:59;96744.25;;;3.66;100.00
62712;BME280;48772;55.586;37.730;2023-03-12T03:19:24;96742.91;;;3.62;100.00
62712;BME280;48772;55.586;37.730;2023-03-12T03:21:50;96746.34;;;3.63;100.00
62712;BME280;48772;55.586;37.730;2023-03-12T03:24:16;96750.03;;;3.70;100.00
62712;BME280;48772;55.586;37.730;2023-03-12T03:26:42;96751.41;;;3.74;100.00
62712;BME280;48772;55.586;37.730;2023-03-12T03:29:08;96770.75;;;3.82;100.00
62712;BME280;48772;55.586;37.730;2023-03-12T03:31:34;96732.38;;;3.62;100.00
62712;BME280;48772;55.586;37.730;2023-03-12T03:34:00;96754.63;;;3.85;100.00
62712;BME280;48772;55.586;37.730;2023-03-12T03:36:26;96726.47;;;3.68;100.00
62712;BME280;48772;55.586;37.730;2023-03-12T03:39:00;96736.03;;;3.87;100.00
62712;BME280;48772;55.586;37.730;2023-03-12T03:41:28;96705.09;;;3.71;100.00
62712;BME280;48772;55.586;37.730;2023-03-12T03:43:56;96718.34;;;3.79;100.00
62712;BME280;48772;55.586;37.730;2023-03-12T03:46:23;96740.00;;;3.91;100.00
62712;BME280;48772;55.586;37.730;2023-03-12T03:48:54;96724.19;;;3.91;100.00
62712;BME280;48772;55.586;37.730;2023-03-12T03:51:21;96725.50;;;3.87;100.00
62712;BME280;48772;55.586;37.730;2023-03-12T03:53:51;96709.69;;;3.87;100.00
62712;BME280;48772;55.586;37.730;2023-03-12T03:56:17;96687.75;;;3.86;100.00
62712;BME280;48772;55.586;37.730;2023-03-12T03:58:48;96687.63;;;3.88;100.00
62712;BME280;48772;55.586;37.730;2023-03-12T04:01:17;96659.50;;;3.71;100.00
62712;BME280;48772;55.586;37.730;2023-03-12T04:03:44;96679.06;;;3.86;100.00
62712;BME280;48772;55.586;37.730;2023-03-12T04:06:11;96659.25;;;3.82;100.00
62712;BME280;48772;55.586;37.730;2023-03-12T04:08:37;96680.63;;;4.04;100.00
62712;BME280;48772;55.586;37.730;2023-03-12T04:11:17;96643.66;;;3.88;100.00
62712;BME280;48772;55.586;37.730;2023-03-12T04:13:44;96677.69;;;4.07;100.00
62712;BME280;48772;55.586;37.730;2023-03-12T04:16:13;96684.81;;;4.07;100.00
62712;BME280;48772;55.586;37.730;2023-03-12T04:18:39;96655.97;;;4.05;100.00
62712;BME280;48772;55.586;37.730;2023-03-12T04:21:07;96651.19;;;4.09;100.00
62712;BME280;48772;55.586;37.730;2023-03-12T04:23:35;96653.84;;;4.17;100.00
62712;BME280;48772;55.586;37.730;2023-03-12T04:26:01;96646.59;;;4.11;100.00
62712;BME280;48772;55.586;37.730;2023-03-12T04:28:29;96600.34;;;3.91;100.00
62712;BME280;48772;55.586;37.730;2023-03-12T04:31:00;96638.03;;;4.17;100.00
62712;BME280;48772;55.586;37.730;2023-03-12T04:33:33;96619.56;;;4.09;100.00
62712;BME280;48772;55.586;37.730;2023-03-12T04:35:59;96639.72;;;4.18;100.00
62712;BME280;48772;55.586;37.730;2023-03-12T04:38:25;96643.31;;;4.17;100.00
62712;BME280;48772;55.586;37.730;2023-03-12T04:41:05;96623.63;;;4.29;100.00
62712;BME280;48772;55.586;37.730;2023-03-12T04:43:33;96613.81;;;4.13;100.00
62712;BME280;48772;55.586;37.730;2023-03-12T04:45:59;96623.28;;;4.32;100.00
62712;BME280;48772;55.586;37.730;2023-03-12T04:48:26;96662.41;;;4.44;100.00
62712;BME280;48772;55.586;37.730;2023-03-12T04:50:52;96630.69;;;4.28;100.00
62712;BME280;48772;55.586;37.730;2023-03-12T04:53:18;96620.00;;;4.38;100.00
62712;BME280;48772;55.586;37.730;2023-03-12T04:55:46;96620.72;;;4.48;100.00
62712;BME280;48772;55.586;37.730;2023-03-12T04:58:12;96582.81;;;4.15;100.00
62712;BME280;48772;55.586;37.730;2023-03-12T05:00:39;96607.69;;;4.46;100.00
62712;BME280;48772;55.586;37.730;2023-03-12T05:03:05;96612.78;;;4.40;100.00
62712;BME280;48772;55.586;37.730;2023-03-12T05:05:32;96621.75;;;4.55;100.00
62712;BME280;48772;55.586;37.730;2023-03-12T05:07:58;96619.59;;;4.58;100.00
62712;BME280;48772;55.586;37.730;2023-03-12T05:10:24;96608.88;;;4.60;100.00
62712;BME280;48772;55.586;37.730;2023-03-12T05:12:50;96583.78;;;4.48;100.00
62712;BME280;48772;55.586;37.730;2023-03-12T05:15:18;96594.38;;;4.56;100.00
62712;BME280;48772;55.586;37.730;2023-03-12T05:17:44;96605.25;;;4.61;100.00
62712;BME280;48772;55.586;37.730;2023-03-12T05:20:11;96580.88;;;4.67;100.00
62712;BME280;48772;55.586;37.730;2023-03-12T05:22:37;96608.28;;;4.74;100.00
62712;BME280;48772;55.586;37.730;2023-03-12T05:25:04;96581.19;;;4.56;100.00
62712;BME280;48772;55.586;37.730;2023-03-12T05:27:31;96619.81;;;4.73;100.00
62712;BME280;48772;55.586;37.730;2023-03-12T05:29:57;96602.00;;;4.75;100.00
62712;BME280;48772;55.586;37.730;2023-03-12T05:32:23;96590.91;;;4.63;100.00
62712;BME280;48772;55.586;37.730;2023-03-12T05:34:49;96594.91;;;4.67;100.00
62712;BME280;48772;55.586;37.730;2023-03-12T05:37:15;96578.22;;;4.59;100.00
62712;BME280;48772;55.586;37.730;2023-03-12T05:39:41;96609.94;;;4.83;100.00
62712;BME280;48772;55.586;37.730;2023-03-12T05:42:13;96573.66;;;4.77;100.00
62712;BME280;48772;55.586;37.730;2023-03-12T05:44:40;96592.75;;;4.71;100.00
62712;BME280;48772;55.586;37.730;2023-03-12T05:47:08;96560.28;;;4.78;100.00
62712;BME280;48772;55.586;37.730;2023-03-12T05:49:33;96583.22;;;4.86;100.00
62712;BME280;48772;55.586;37.730;2023-03-12T05:51:59;96531.06;;;4.64;100.00
62712;BME280;48772;55.586;37.730;2023-03-12T05:54:25;96538.34;;;4.78;100.00
62712;BME280;48772;55.586;37.730;2023-03-12T05:56:52;96561.78;;;4.89;100.00
62712;BME280;48772;55.586;37.730;2023-03-12T05:59:19;96527.31;;;4.82;100.00
62712;BME280;48772;55.586;37.730;2023-03-12T06:01:45;96564.41;;;4.97;100.00
62712;BME280;48772;55.586;37.730;2023-03-12T06:04:11;96567.72;;;4.99;100.00
62712;BME280;48772;55.586;37.730;2023-03-12T06:06:37;96576.63;;;4.98;100.00
62712;BME280;48772;55.586;37.730;2023-03-12T06:09:04;96571.03;;;5.01;100.00
62712;BME280;48772;55.586;37.730;2023-03-12T06:11:30;96567.56;;;5.08;100.00
62712;BME280;48772;55.586;37.730;2023-03-12T06:13:57;96571.84;;;5.09;100.00
62712;BME280;48772;55.586;37.730;2023-03-12T06:16:26;96556.19;;;5.08;100.00
62712;BME280;48772;55.586;37.730;2023-03-12T06:18:55;96593.50;;;5.13;100.00
62712;BME280;48772;55.586;37.730;2023-03-12T06:21:24;96525.47;;;4.91;100.00
62712;BME280;48772;55.586;37.730;2023-03-12T06:23:51;96543.31;;;5.13;100.00
62712;BME280;48772;55.586;37.730;2023-03-12T06:26:25;96519.22;;;5.00;100.00
62712;BME280;48772;55.586;37.730;2023-03-12T06:28:51;96554.84;;;5.12;100.00
62712;BME280;48772;55.586;37.730;2023-03-12T06:31:18;96529.13;;;5.14;100.00
62712;BME280;48772;55.586;37.730;2023-03-12T06:33:44;96547.59;;;5.22;100.00
62712;BME280;48772;55.586;37.730;2023-03-12T06:36:10;96545.28;;;5.19;100.00
62712;BME280;48772;55.586;37.730;2023-03-12T06:38:36;96555.03;;;5.26;100.00
62712;BME280;48772;55.586;37.730;2023-03-12T06:43:32;96518.69;;;5.28;100.00
62712;BME280;48772;55.586;37.730;2023-03-12T06:45:59;96497.72;;;5.27;100.00
62712;BME280;48772;55.586;37.730;2023-03-12T06:48:28;96463.59;;;5.09;100.00
62712;BME280;48772;55.586;37.730;2023-03-12T06:50:54;96521.19;;;5.22;100.00
62712;BME280;48772;55.586;37.730;2023-03-12T06:53:20;96501.03;;;5.29;100.00
62712;BME280;48772;55.586;37.730;2023-03-12T06:55:49;96511.25;;;5.40;100.00
62712;BME280;48772;55.586;37.730;2023-03-12T06:58:15;96525.13;;;5.50;100.00
62712;BME280;48772;55.586;37.730;2023-03-12T07:00:41;96484.00;;;5.39;100.00
62712;BME280;48772;55.586;37.730;2023-03-12T07:03:07;96518.69;;;5.52;100.00
62712;BME280;48772;55.586;37.730;2023-03-12T07:05:33;96506.09;;;5.54;100.00
62712;BME280;48772;55.586;37.730;2023-03-12T07:07:59;96494.38;;;5.49;100.00
62712;BME280;48772;55.586;37.730;2023-03-12T07:10:25;96486.13;;;5.52;100.00
62712;BME280;48772;55.586;37.730;2023-03-12T07:12:55;96485.31;;;5.51;100.00
62712;BME280;48772;55.586;37.730;2023-03-12T07:15:21;96453.78;;;5.42;100.00
62712;BME280;48772;55.586;37.730;2023-03-12T07:17:47;96440.78;;;5.24;100.00
62712;BME280;48772;55.586;37.730;2023-03-12T07:20:13;96455.28;;;5.36;100.00
62712;BME280;48772;55.586;37.730;2023-03-12T07:22:39;96452.84;;;5.35;100.00
62712;BME280;48772;55.586;37.730;2023-03-12T07:25:05;96464.81;;;5.53;100.00
62712;BME280;48772;55.586;37.730;2023-03-12T07:27:31;96431.03;;;5.33;100.00
62712;BME280;48772;55.586;37.730;2023-03-12T07:29:57;96484.63;;;5.57;100.00
62712;BME280;48772;55.586;37.730;2023-03-12T07:32:23;96474.22;;;5.56;100.00
62712;BME280;48772;55.586;37.730;2023-03-12T07:34:49;96434.97;;;5.45;100.00
62712;BME280;48772;55.586;37.730;2023-03-12T07:37:15;96429.41;;;5.32;100.00
62712;BME280;48772;55.586;37.730;2023-03-12T07:39:40;96431.69;;;5.43;100.00
62712;BME280;48772;55.586;37.730;2023-03-12T07:42:06;96446.47;;;5.60;100.00
62712;BME280;48772;55.586;37.730;2023-03-12T07:44:32;96443.81;;;5.60;100.00
62712;BME280;48772;55.586;37.730;2023-03-12T07:47:01;96428.34;;;5.57;100.00
62712;BME280;48772;55.586;37.730;2023-03-12T07:49:27;96411.97;;;5.53;100.00
62712;BME280;48772;55.586;37.730;2023-03-12T07:51:53;96397.63;;;5.48;100.00
62712;BME280;48772;55.586;37.730;2023-03-12T07:54:19;96438.44;;;5.45;100.00
62712;BME280;48772;55.586;37.730;2023-03-12T07:56:46;96424.84;;;5.56;100.00
62712;BME280;48772;55.586;37.730;2023-03-12T07:59:12;96430.63;;;5.60;100.00
62712;BME280;48772;55.586;37.730;2023-03-12T08:01:38;96420.75;;;5.54;100.00
62712;BME280;48772;55.586;37.730;2023-03-12T08:04:03;96418.75;;;5.56;100.00
62712;BME280;48772;55.586;37.730;2023-03-12T08:06:29;96419.75;;;5.55;100.00
62712;BME280;48772;55.586;37.730;2023-03-12T08:08:55;96379.84;;;5.34;100.00
62712;BME280;48772;55.586;37.730;2023-03-12T08:11:21;96383.47;;;5.41;100.00
62712;BME280;48772;55.586;37.730;2023-03-12T08:13:47;96369.63;;;5.31;100.00
62712;BME280;48772;55.586;37.730;2023-03-12T08:16:13;96376.38;;;5.41;100.00
62712;BME280;48772;55.586;37.730;2023-03-12T08:18:39;96377.81;;;5.52;100.00
62712;BME280;48772;55.586;37.730;2023-03-12T08:21:07;96384.09;;;5.51;100.00
62712;BME280;48772;55.586;37.730;2023-03-12T08:23:33;96380.06;;;5.63;100.00
62712;BME280;48772;55.586;37.730;2023-03-12T08:26:00;96372.13;;;5.63;100.00
62712;BME280;48772;55.586;37.730;2023-03-12T08:28:26;96357.75;;;5.73;100.00
62712;BME280;48772;55.586;37.730;2023-03-12T08:30:54;96382.00;;;5.77;100.00
62712;BME280;48772;55.586;37.730;2023-03-12T08:33:23;96326.59;;;5.61;100.00
62712;BME280;48772;55.586;37.730;2023-03-12T08:35:49;96339.41;;;5.72;100.00
62712;BME280;48772;55.586;37.730;2023-03-12T08:38:15;96351.78;;;5.71;100.00
62712;BME280;48772;55.586;37.730;2023-03-12T08:40:41;96332.81;;;5.68;100.00
62712;BME280;48772;55.586;37.730;2023-03-12T08:43:07;96335.69;;;5.89;100.00
62712;BME280;48772;55.586;37.730;2023-03-12T08:45:33;96334.81;;;5.96;100.00
62712;BME280;48772;55.586;37.730;2023-03-12T08:48:03;96286.06;;;5.68;100.00
62712;BME280;48772;55.586;37.730;2023-03-12T08:50:30;96320.47;;;5.91;100.00
62712;BME280;48772;55.586;37.730;2023-03-12T08:52:58;96324.75;;;5.92;100.00
62712;BME280;48772;55.586;37.730;2023-03-12T08:55:24;96307.94;;;5.85;100.00
62712;BME280;48772;55.586;37.730;2023-03-12T08:57:53;96295.22;;;5.80;100.00
62712;BME280;48772;55.586;37.730;2023-03-12T09:00:19;96325.03;;;5.97;100.00
62712;BME280;48772;55.586;37.730;2023-03-12T09:02:46;96322.78;;;5.94;100.00
62712;BME280;48772;55.586;37.730;2023-03-12T09:05:13;96306.44;;;5.90;100.00
62712;BME280;48772;55.586;37.730;2023-03-12T09:07:39;96226.44;;;5.43;100.00
62712;BME280;48772;55.586;37.730;2023-03-12T09:10:05;96263.63;;;5.64;100.00
62712;BME280;48772;55.586;37.730;2023-03-12T09:12:31;96306.78;;;5.87;100.00
62712;BME280;48772;55.586;37.730;2023-03-12T09:14:57;96311.25;;;5.87;100.00
62712;BME280;48772;55.586;37.730;2023-03-12T09:17:23;96272.28;;;5.50;100.00
62712;BME280;48772;55.586;37.730;2023-03-12T09:19:49;96303.84;;;5.82;100.00
62712;BME280;48772;55.586;37.730;2023-03-12T09:22:15;96309.59;;;5.86;100.00
62712;BME280;48772;55.586;37.730;2023-03-12T09:24:41;96306.34;;;5.76;100.00
62712;BME280;48772;55.586;37.730;2023-03-12T09:27:07;96196.63;;;5.35;100.00
62712;BME280;48772;55.586;37.730;2023-03-12T09:29:33;96260.72;;;5.82;100.00
62712;BME280;48772;55.586;37.730;2023-03-12T09:32:01;96270.94;;;5.85;100.00
62712;BME280;48772;55.586;37.730;2023-03-12T09:34:26;96215.28;;;5.56;100.00
62712;BME280;48772;55.586;37.730;2023-03-12T09:36:52;96255.56;;;5.88;100.00
62712;BME280;48772;55.586;37.730;2023-03-12T09:39:18;96243.16;;;5.89;100.00
62712;BME280;48772;55.586;37.730;2023-03-12T09:41:46;96251.22;;;5.95;100.00
62712;BME280;48772;55.586;37.730;2023-03-12T09:44:22;96260.47;;;5.91;100.00
62712;BME280;48772;55.586;37.730;2023-03-12T09:46:57;96230.59;;;5.91;100.00
62712;BME280;48772;55.586;37.730;2023-03-12T09:49:29;96210.19;;;5.77;100.00
62712;BME280;48772;55.586;37.730;2023-03-12T09:51:57;96234.16;;;5.98;100.00
62712;BME280;48772;55.586;37.730;2023-03-12T09:54:37;96226.88;;;6.00;100.00
62712;BME280;48772;55.586;37.730;2023-03-12T09:57:11;96227.81;;;6.07;100.00
62712;BME280;48772;55.586;37.730;2023-03-12T09:59:37;96213.56;;;6.08;100.00
62712;BME280;48772;55.586;37.730;2023-03-12T10:02:12;96182.34;;;5.89;100.00
62712;BME280;48772;55.586;37.730;2023-03-12T10:04:57;96212.41;;;6.10;100.00
62712;BME280;48772;55.586;37.730;2023-03-12T10:07:35;96186.84;;;6.03;100.00
62712;BME280;48772;55.586;37.730;2023-03-12T10:10:26;96182.66;;;6.08;100.00
62712;BME280;48772;55.586;37.730;2023-03-12T10:18:36;96199.47;;;6.15;100.00
62712;BME280;48772;55.586;37.730;2023-03-12T10:21:18;96170.91;;;6.11;100.00
62712;BME280;48772;55.586;37.730;2023-03-12T10:26:23;96162.22;;;6.02;100.00
62712;BME280;48772;55.586;37.730;2023-03-12T10:29:03;96176.50;;;6.16;100.00
62712;BME280;48772;55.586;37.730;2023-03-12T10:31:35;96129.78;;;5.94;100.00
62712;BME280;48772;55.586;37.730;2023-03-12T10:34:11;96089.91;;;5.81;100.00
62712;BME280;48772;55.586;37.730;2023-03-12T10:36:40;96147.94;;;6.26;100.00
62712;BME280;48772;55.586;37.730;2023-03-12T10:39:15;96130.00;;;6.21;100.00
62712;BME280;48772;55.586;37.730;2023-03-12T10:41:43;96136.72;;;6.24;100.00
62712;BME280;48772;55.586;37.730;2023-03-12T10:44:28;96125.78;;;6.27;100.00
62712;BME280;48772;55.586;37.730;2023-03-12T10:47:04;96121.13;;;6.29;100.00
62712;BME280;48772;55.586;37.730;2023-03-12T10:49:33;96130.44;;;6.25;100.00
62712;BME280;48772;55.586;37.730;2023-03-12T10:52:15;96121.13;;;6.14;100.00
62712;BME280;48772;55.586;37.730;2023-03-12T10:54:44;96133.78;;;6.19;100.00
62712;BME280;48772;55.586;37.730;2023-03-12T10:57:11;96142.28;;;6.29;100.00
62712;BME280;48772;55.586;37.730;2023-03-12T10:59:39;96133.06;;;6.25;100.00
62712;BME280;48772;55.586;37.730;2023-03-12T11:04:51;96102.72;;;6.21;100.00
62712;BME280;48772;55.586;37.730;2023-03-12T11:12:32;96116.94;;;6.34;100.00
62712;BME280;48772;55.586;37.730;2023-03-12T11:15:21;96104.44;;;6.43;100.00
62712;BME280;48772;55.586;37.730;2023-03-12T11:17:47;96089.75;;;6.40;100.00
62712;BME280;48772;55.586;37.730;2023-03-12T11:22:45;96039.59;;;6.18;100.00
62712;BME280;48772;55.586;37.730;2023-03-12T11:25:28;96062.75;;;6.30;100.00
62712;BME280;48772;55.586;37.730;2023-03-12T11:27:59;96043.06;;;6.18;100.00
62712;BME280;48772;55.586;37.730;2023-03-12T11:30:33;96015.00;;;6.03;100.00
62712;BME280;48772;55.586;37.730;2023-03-12T11:33:01;96086.28;;;6.40;100.00
62712;BME280;48772;55.586;37.730;2023-03-12T11:38:18;96073.88;;;6.26;100.00
62712;BME280;48772;55.586;37.730;2023-03-12T11:56:36;96025.19;;;6.06;100.00
62712;BME280;48772;55.586;37.730;2023-03-12T11:59:48;96056.28;;;6.18;100.00
62712;BME280;48772;55.586;37.730;2023-03-12T12:02:39;96074.06;;;6.10;100.00
62712;BME280;48772;55.586;37.730;2023-03-12T12:05:20;96105.81;;;6.10;100.00
62712;BME280;48772;55.586;37.730;2023-03-12T12:08:18;96098.59;;;5.67;100.00
62712;BME280;48772;55.586;37.730;2023-03-12T12:16:11;96099.91;;;4.20;100.00
62712;BME280;48772;55.586;37.730;2023-03-12T12:27:38;96166.22;;;3.77;100.00
62712;BME280;48772;55.586;37.730;2023-03-12T12:32:29;96174.13;;;3.36;100.00
62712;BME280;48772;55.586;37.730;2023-03-12T12:37:36;96156.44;;;2.81;100.00
62712;BME280;48772;55.586;37.730;2023-03-12T12:42:57;96193.13;;;2.82;100.00
62712;BME280;48772;55.586;37.730;2023-03-12T12:45:26;96206.88;;;2.68;100.00
62712;BME280;48772;55.586;37.730;2023-03-12T12:48:02;96213.28;;;2.66;100.00
62712;BME280;48772;55.586;37.730;2023-03-12T12:50:34;96193.63;;;2.52;100.00
62712;BME280;48772;55.586;37.730;2023-03-12T12:56:22;96219.31;;;2.58;100.00
62712;BME280;48772;55.586;37.730;2023-03-12T13:01:37;96241.31;;;2.49;100.00
62712;BME280;48772;55.586;37.730;2023-03-12T13:04:08;96255.06;;;2.43;100.00
62712;BME280;48772;55.586;37.730;2023-03-12T13:07:03;96251.56;;;2.35;100.00
62712;BME280;48772;55.586;37.730;2023-03-12T13:09:43;96241.41;;;2.14;100.00
62712;BME280;48772;55.586;37.730;2023-03-12T13:12:30;96265.31;;;2.03;100.00
62712;BME280;48772;55.586;37.730;2023-03-12T13:15:01;96268.19;;;1.92;100.00
62712;BME280;48772;55.586;37.730;2023-03-12T13:20:39;96290.41;;;1.80;100.00
62712;BME280;48772;55.586;37.730;2023-03-12T13:25:54;96298.34;;;1.53;100.00
62712;BME280;48772;55.586;37.730;2023-03-12T13:30:56;96305.66;;;1.42;100.00
62712;BME280;48772;55.586;37.730;2023-03-12T13:33:46;96267.16;;;1.15;100.00
62712;BME280;48772;55.586;37.730;2023-03-12T13:38:59;96353.53;;;1.26;100.00
62712;BME280;48772;55.586;37.730;2023-03-12T13:44:28;96358.03;;;1.07;100.00
62712;BME280;48772;55.586;37.730;2023-03-12T13:55:28;96361.31;;;0.45;100.00
62712;BME280;48772;55.586;37.730;2023-03-12T13:58:27;96329.38;;;0.13;100.00
62712;BME280;48772;55.586;37.730;2023-03-12T14:01:00;96401.28;;;0.47;100.00
62712;BME280;48772;55.586;37.730;2023-03-12T14:03:31;96333.66;;;-0.05;100.00
62712;BME280;48772;55.586;37.730;2023-03-12T14:06:09;96398.53;;;0.39;100.00
62712;BME280;48772;55.586;37.730;2023-03-12T14:08:58;96414.81;;;0.43;100.00
62712;BME280;48772;55.586;37.730;2023-03-12T14:16:50;96414.28;;;0.20;100.00
62712;BME280;48772;55.586;37.730;2023-03-12T14:19:21;96394.41;;;-0.11;100.00
62712;BME280;48772;55.586;37.730;2023-03-12T14:21:49;96430.13;;;-0.20;100.00
62712;BME280;48772;55.586;37.730;2023-03-12T14:24:28;96466.66;;;-0.09;100.00
62712;BME280;48772;55.586;37.730;2023-03-12T14:26:57;96380.34;;;-0.48;100.00
62712;BME280;48772;55.586;37.730;2023-03-12T14:29:32;96481.09;;;-0.14;100.00
62712;BME280;48772;55.586;37.730;2023-03-12T14:32:11;96384.97;;;-0.80;100.00
62712;BME280;48772;55.586;37.730;2023-03-12T14:34:44;96451.13;;;-0.50;100.00
62712;BME280;48772;55.586;37.730;2023-03-12T14:37:24;96479.53;;;-0.36;100.00
62712;BME280;48772;55.586;37.730;2023-03-12T14:39:56;96472.22;;;-0.42;100.00
62712;BME280;48772;55.586;37.730;2023-03-12T14:42:30;96519.34;;;-0.42;100.00
62712;BME280;48772;55.586;37.730;2023-03-12T14:45:02;96505.94;;;-0.39;100.00